createdAt,value
2022-11-25T00:01:07.454Z,5.80
2022-11-25T00:03:36.123Z,5.80
2022-11-25T00:06:12.306Z,5.80
2022-11-25T00:08:42.694Z,5.80
2022-11-25T00:11:11.217Z,5.80
2022-11-25T00:13:40.033Z,5.90
2022-11-25T00:16:09.917Z,5.80
2022-11-25T00:18:37.969Z,5.90
2022-11-25T00:21:10.068Z,5.90
2022-11-25T00:23:38.408Z,5.90
2022-11-25T00:26:12.653Z,5.90
2022-11-25T00:28:41.474Z,5.90
2022-11-25T00:31:10.086Z,5.90
2022-11-25T00:33:38.958Z,6.00
2022-11-25T00:36:08.643Z,6.00
2022-11-25T00:38:36.355Z,5.90
2022-11-25T00:41:21.847Z,5.90
2022-11-25T00:44:19.891Z,5.90
2022-11-25T00:46:47.607Z,5.90
2022-11-25T00:49:15.331Z,6.00
2022-11-25T00:51:43.086Z,6.00
2022-11-25T00:54:10.794Z,6.00
2022-11-25T00:56:38.485Z,6.00
2022-11-25T00:59:07.850Z,5.90
2022-11-25T01:01:36.069Z,6.00
2022-11-25T01:04:04.997Z,6.00
2022-11-25T01:06:32.712Z,6.00
2022-11-25T01:09:00.456Z,6.00
2022-11-25T01:11:28.205Z,5.90
2022-11-25T01:14:00.873Z,5.90
2022-11-25T01:16:31.751Z,5.90
2022-11-25T01:19:00.154Z,5.90
2022-11-25T01:21:29.511Z,5.90
2022-11-25T01:23:59.270Z,5.90
2022-11-25T01:26:27.222Z,5.80
2022-11-25T01:28:56.371Z,5.80
2022-11-25T01:31:26.044Z,5.80
2022-11-25T01:33:57.564Z,5.80
2022-11-25T01:36:25.541Z,5.80
2022-11-25T01:38:54.974Z,5.80
2022-11-25T01:41:24.539Z,5.80
2022-11-25T01:44:14.326Z,5.80
2022-11-25T01:46:50.615Z,5.90
2022-11-25T01:49:26.129Z,5.90
2022-11-25T01:51:58.137Z,5.90
2022-11-25T01:54:30.342Z,5.90
2022-11-25T01:57:00.846Z,5.90
2022-11-25T01:59:29.964Z,5.90
2022-11-25T02:01:59.548Z,6.00
2022-11-25T02:04:34.843Z,6.00
2022-11-25T02:07:08.404Z,6.00
2022-11-25T02:09:39.263Z,6.00
2022-11-25T02:12:07.890Z,6.00
2022-11-25T02:14:36.289Z,6.00
2022-11-25T02:17:04.309Z,6.10
2022-11-25T02:19:52.197Z,6.10
2022-11-25T02:22:26.765Z,6.10
2022-11-25T02:24:58.889Z,6.10
2022-11-25T02:27:28.787Z,6.20
2022-11-25T02:29:56.610Z,6.20
2022-11-25T02:32:24.392Z,6.20
2022-11-25T02:34:52.139Z,6.20
2022-11-25T02:37:23.596Z,6.20
2022-11-25T02:39:52.784Z,6.20
2022-11-25T02:42:22.533Z,6.30
2022-11-25T02:44:51.690Z,6.30
2022-11-25T02:47:19.471Z,6.30
2022-11-25T02:49:47.247Z,6.30
2022-11-25T02:52:14.983Z,6.30
2022-11-25T02:54:42.729Z,6.40
2022-11-25T02:57:10.458Z,6.40
2022-11-25T02:59:38.198Z,6.40
2022-11-25T03:02:07.358Z,6.40
2022-11-25T03:04:35.426Z,6.40
2022-11-25T03:07:03.964Z,6.40
2022-11-25T03:09:31.725Z,6.50
2022-11-25T03:12:17.304Z,6.50
2022-11-25T03:14:45.075Z,6.50
2022-11-25T03:17:14.402Z,6.50
2022-11-25T03:19:42.250Z,6.50
2022-11-25T03:22:10.015Z,6.50
2022-11-25T03:24:38.120Z,6.50
2022-11-25T03:27:06.443Z,6.50
2022-11-25T03:29:34.168Z,6.50
2022-11-25T03:32:05.502Z,6.60
2022-11-25T03:34:38.480Z,6.60
2022-11-25T03:37:06.580Z,6.60
2022-11-25T03:39:34.715Z,6.60
2022-11-25T03:42:02.507Z,6.60
2022-11-25T03:44:30.271Z,6.60
2022-11-25T03:46:58.013Z,6.60
2022-11-25T03:49:26.085Z,6.70
2022-11-25T03:51:55.290Z,6.70
2022-11-25T03:54:23.051Z,6.70
2022-11-25T03:56:50.837Z,6.70
2022-11-25T03:59:18.634Z,6.70
2022-11-25T04:01:46.404Z,6.70
2022-11-25T04:04:14.281Z,6.70
2022-11-25T04:06:42.024Z,6.80
2022-11-25T04:09:11.899Z,6.80
2022-11-25T04:11:57.169Z,6.80
2022-11-25T04:14:24.964Z,6.80
2022-11-25T04:16:52.784Z,6.80
2022-11-25T04:19:20.537Z,6.90
2022-11-25T04:21:52.290Z,6.90
2022-11-25T04:24:22.197Z,6.90
2022-11-25T04:26:50.133Z,6.90
2022-11-25T04:29:17.909Z,6.90
2022-11-25T04:31:45.681Z,6.90
2022-11-25T04:34:13.689Z,6.90
2022-11-25T04:36:41.452Z,6.90
2022-11-25T04:39:09.196Z,7.00
2022-11-25T04:41:38.268Z,7.00
2022-11-25T04:44:06.233Z,7.00
2022-11-25T04:46:38.902Z,7.00
2022-11-25T04:49:06.700Z,7.00
2022-11-25T04:51:34.448Z,7.00
2022-11-25T04:54:02.269Z,7.00
2022-11-25T04:56:30.025Z,7.00
2022-11-25T04:59:15.943Z,7.00
2022-11-25T05:01:43.707Z,7.00
2022-11-25T05:04:11.497Z,7.00
2022-11-25T05:06:39.236Z,7.00
2022-11-25T05:09:06.993Z,7.10
2022-11-25T05:11:34.717Z,7.10
2022-11-25T05:14:03.813Z,7.10
2022-11-25T05:16:31.526Z,7.10
2022-11-25T05:18:59.340Z,7.10
2022-11-25T05:21:27.106Z,7.10
2022-11-25T05:23:56.065Z,7.10
2022-11-25T05:26:24.007Z,7.10
2022-11-25T05:28:51.754Z,7.10
2022-11-25T05:31:21.104Z,7.10
2022-11-25T05:33:48.912Z,7.10
2022-11-25T05:36:16.672Z,7.10
2022-11-25T05:38:44.720Z,7.10
2022-11-25T05:41:13.241Z,7.10
2022-11-25T05:43:41.174Z,7.10
2022-11-25T05:46:09.217Z,7.00
2022-11-25T05:48:38.660Z,7.00
2022-11-25T05:51:07.052Z,7.00
2022-11-25T05:53:34.831Z,7.00
2022-11-25T05:56:04.473Z,7.00
2022-11-25T05:58:33.553Z,7.00
2022-11-25T06:01:01.324Z,7.00
2022-11-25T06:03:30.667Z,7.00
2022-11-25T06:06:00.569Z,7.00
2022-11-25T06:08:28.929Z,7.00
2022-11-25T06:10:56.988Z,7.00
2022-11-25T06:13:24.769Z,7.00
2022-11-25T06:15:52.601Z,7.00
2022-11-25T06:18:20.399Z,7.00
2022-11-25T06:20:59.272Z,7.00
2022-11-25T06:23:27.563Z,7.00
2022-11-25T06:25:55.319Z,7.00
2022-11-25T06:28:23.086Z,7.00
2022-11-25T06:30:51.891Z,7.00
2022-11-25T06:33:19.691Z,7.00
2022-11-25T06:35:47.451Z,7.00
2022-11-25T06:38:16.539Z,7.00
2022-11-25T06:40:44.373Z,7.00
2022-11-25T06:43:12.111Z,7.00
2022-11-25T06:45:39.841Z,7.00
2022-11-25T06:48:07.607Z,7.00
2022-11-25T06:50:35.329Z,7.00
2022-11-25T06:53:03.148Z,7.00
2022-11-25T06:55:32.826Z,7.00
2022-11-25T06:58:27.848Z,7.00
2022-11-25T07:00:48.270Z,7.00
2022-11-25T07:03:16.054Z,7.00
2022-11-25T07:05:43.868Z,7.00
2022-11-25T07:08:11.582Z,7.00
2022-11-25T07:10:40.684Z,7.00
2022-11-25T07:13:08.386Z,7.00
2022-11-25T07:15:36.332Z,7.00
2022-11-25T07:18:04.196Z,7.00
2022-11-25T07:20:32.735Z,7.00
2022-11-25T07:23:00.502Z,7.00
2022-11-25T07:25:30.788Z,7.00
2022-11-25T07:28:00.498Z,7.00
2022-11-25T07:31:21.773Z,7.00
2022-11-25T07:33:16.393Z,7.00
2022-11-25T07:35:44.214Z,7.00
2022-11-25T07:38:11.964Z,7.10
2022-11-25T07:40:39.758Z,7.10
2022-11-25T07:43:08.853Z,7.10
2022-11-25T07:45:36.628Z,7.10
2022-11-25T07:48:04.776Z,7.10
2022-11-25T07:50:33.346Z,7.10
2022-11-25T07:53:01.112Z,7.10
2022-11-25T07:55:28.886Z,7.10
2022-11-25T07:57:56.639Z,7.10
2022-11-25T08:00:25.825Z,7.10
2022-11-25T08:02:54.481Z,7.10
2022-11-25T08:05:22.282Z,7.10
2022-11-25T08:07:50.026Z,7.20
2022-11-25T08:10:17.949Z,7.20
2022-11-25T08:12:45.689Z,7.20
2022-11-25T08:15:13.475Z,7.20
2022-11-25T08:17:42.578Z,7.20
2022-11-25T08:20:10.841Z,7.20
2022-11-25T08:22:38.589Z,7.30
2022-11-25T08:25:07.106Z,7.30
2022-11-25T08:27:34.864Z,7.30
2022-11-25T08:30:02.584Z,7.30
2022-11-25T08:32:30.416Z,7.30
2022-11-25T08:34:59.617Z,7.30
2022-11-25T08:37:27.394Z,7.40
2022-11-25T08:39:55.487Z,7.40
2022-11-25T08:42:23.894Z,7.40
2022-11-25T08:44:53.773Z,7.40
2022-11-25T08:47:21.671Z,7.40
2022-11-25T08:49:51.970Z,7.50
2022-11-25T08:52:21.118Z,7.50
2022-11-25T08:54:48.984Z,7.50
2022-11-25T08:57:16.965Z,7.50
2022-11-25T08:59:44.704Z,7.60
2022-11-25T09:02:15.563Z,7.60
2022-11-25T09:04:43.466Z,7.60
2022-11-25T09:07:11.475Z,7.60
2022-11-25T09:09:40.885Z,7.70
2022-11-25T09:12:08.778Z,7.80
2022-11-25T09:14:36.625Z,7.80
2022-11-25T09:17:09.822Z,7.90
2022-11-25T09:19:37.863Z,7.90
2022-11-25T09:22:05.844Z,7.90
2022-11-25T09:24:33.558Z,7.90
2022-11-25T09:27:02.686Z,7.90
2022-11-25T09:29:31.088Z,8.00
2022-11-25T09:31:58.955Z,8.00
2022-11-25T09:34:26.826Z,8.00
2022-11-25T09:36:54.582Z,8.10
2022-11-25T09:39:23.433Z,8.20
2022-11-25T09:42:21.901Z,8.20
2022-11-25T09:45:21.098Z,8.30
2022-11-25T09:48:00.053Z,8.40
2022-11-25T09:50:41.075Z,8.40
2022-11-25T09:53:19.290Z,8.40
2022-11-25T09:55:50.650Z,8.40
2022-11-25T09:58:29.333Z,8.50
2022-11-25T10:00:59.045Z,8.50
2022-11-25T10:03:35.748Z,8.60
2022-11-25T10:06:07.777Z,8.60
2022-11-25T10:08:39.377Z,8.70
2022-11-25T10:11:19.600Z,8.70
2022-11-25T10:13:55.198Z,8.70
2022-11-25T10:16:34.374Z,8.80
2022-11-25T10:19:06.865Z,8.80
2022-11-25T10:21:34.625Z,8.80
2022-11-25T10:24:03.879Z,8.90
2022-11-25T10:26:37.982Z,8.90
2022-11-25T10:29:27.925Z,9.00
2022-11-25T10:32:12.354Z,9.00
2022-11-25T10:34:43.479Z,9.10
2022-11-25T10:37:16.474Z,9.10
2022-11-25T10:39:44.269Z,9.20
2022-11-25T10:42:17.179Z,9.30
2022-11-25T10:44:44.928Z,9.30
2022-11-25T10:47:27.725Z,9.40
2022-11-25T10:50:08.116Z,9.40
2022-11-25T10:52:40.748Z,9.40
2022-11-25T10:55:14.138Z,9.40
2022-11-25T10:57:42.954Z,9.40
2022-11-25T11:00:28.550Z,9.50
2022-11-25T11:02:59.091Z,9.50
2022-11-25T11:05:29.548Z,9.60
2022-11-25T11:08:16.204Z,9.60
2022-11-25T11:10:44.004Z,9.60
2022-11-25T11:13:24.007Z,9.60
2022-11-25T11:15:52.739Z,9.60
2022-11-25T11:18:28.314Z,9.60
2022-11-25T11:20:58.058Z,9.60
2022-11-25T11:23:26.895Z,9.70
2022-11-25T11:25:59.085Z,9.70
2022-11-25T11:28:32.719Z,9.70
2022-11-25T11:31:03.644Z,9.80
2022-11-25T11:33:37.296Z,9.80
2022-11-25T11:36:21.131Z,9.80
2022-11-25T11:38:54.609Z,9.90
2022-11-25T11:41:36.362Z,9.90
2022-11-25T11:44:15.626Z,9.80
2022-11-25T11:46:56.465Z,9.80
2022-11-25T11:49:54.967Z,9.80
2022-11-25T11:52:32.476Z,9.80
2022-11-25T11:55:03.557Z,9.80
2022-11-25T11:57:40.709Z,9.80
2022-11-25T12:00:13.657Z,9.80
2022-11-25T12:02:55.256Z,9.80
2022-11-25T12:05:28.458Z,9.90
2022-11-25T12:08:04.884Z,9.90
2022-11-25T12:10:37.866Z,9.90
2022-11-25T12:13:12.482Z,9.90
2022-11-25T12:15:45.063Z,9.90
2022-11-25T12:18:21.488Z,10.00
2022-11-25T12:20:55.392Z,10.00
2022-11-25T12:23:30.574Z,10.00
2022-11-25T12:26:06.521Z,10.00
2022-11-25T12:28:39.029Z,10.00
2022-11-25T12:31:16.500Z,10.00
2022-11-25T12:33:52.940Z,10.00
2022-11-25T12:36:29.672Z,10.00
2022-11-25T12:39:01.622Z,10.00
2022-11-25T12:41:35.742Z,10.00
2022-11-25T12:44:09.226Z,10.00
2022-11-25T12:46:43.897Z,10.00
2022-11-25T12:49:18.717Z,10.00
2022-11-25T12:52:19.331Z,9.90
2022-11-25T12:55:06.289Z,9.90
2022-11-25T12:58:22.652Z,9.90
2022-11-25T13:01:19.271Z,9.90
2022-11-25T13:04:15.922Z,10.00
2022-11-25T13:07:00.784Z,10.00
2022-11-25T13:09:47.641Z,10.00
2022-11-25T13:12:32.091Z,10.00
2022-11-25T13:15:21.741Z,10.00
2022-11-25T13:17:52.407Z,10.10
2022-11-25T13:20:40.327Z,10.10
2022-11-25T13:23:25.104Z,10.10
2022-11-25T13:25:54.804Z,10.10
2022-11-25T13:28:34.081Z,10.10
2022-11-25T13:31:23.621Z,10.00
2022-11-25T13:34:08.516Z,10.00
2022-11-25T13:36:47.690Z,10.00
2022-11-25T13:39:18.682Z,10.00
2022-11-25T13:42:02.022Z,10.10
2022-11-25T13:44:34.949Z,10.20
2022-11-25T13:47:29.374Z,10.20
2022-11-25T13:50:01.373Z,10.20
2022-11-25T13:52:37.300Z,10.10
2022-11-25T13:55:25.624Z,10.10
2022-11-25T13:58:07.084Z,10.10
2022-11-25T14:01:03.956Z,10.00
2022-11-25T14:03:47.781Z,10.00
2022-11-25T14:06:33.371Z,10.00
2022-11-25T14:09:05.252Z,10.00
2022-11-25T14:11:59.093Z,10.00
2022-11-25T14:14:51.442Z,9.90
2022-11-25T14:17:39.097Z,9.90
2022-11-25T14:20:22.747Z,9.90
2022-11-25T14:23:45.094Z,9.90
2022-11-25T14:26:42.166Z,9.80
2022-11-25T14:29:15.885Z,9.80
2022-11-25T14:31:47.779Z,9.80
2022-11-25T14:34:20.526Z,9.80
2022-11-25T14:36:52.134Z,9.80
2022-11-25T14:39:26.017Z,9.80
2022-11-25T14:42:00.468Z,9.70
2022-11-25T14:44:33.968Z,9.70
2022-11-25T14:47:05.480Z,9.70
2022-11-25T14:49:59.586Z,9.70
2022-11-25T14:52:37.083Z,9.70
2022-11-25T14:55:07.440Z,9.70
2022-11-25T14:57:37.888Z,9.60
2022-11-25T15:00:10.261Z,9.60
2022-11-25T15:02:42.318Z,9.60
2022-11-25T15:05:17.990Z,9.60
2022-11-25T15:07:55.741Z,9.60
2022-11-25T15:10:41.489Z,9.60
2022-11-25T15:13:20.353Z,9.50
2022-11-25T15:15:51.485Z,9.50
2022-11-25T15:18:22.661Z,9.50
2022-11-25T15:20:54.316Z,9.50
2022-11-25T15:23:28.769Z,9.50
2022-11-25T15:25:57.658Z,9.40
2022-11-25T15:28:25.424Z,9.40
2022-11-25T15:31:00.658Z,9.40
2022-11-25T15:33:30.336Z,9.40
2022-11-25T15:35:58.195Z,9.40
2022-11-25T15:38:42.059Z,9.40
2022-11-25T15:41:20.726Z,9.30
2022-11-25T15:43:50.981Z,9.30
2022-11-25T15:46:20.262Z,9.30
2022-11-25T15:48:50.121Z,9.30
2022-11-25T15:51:27.558Z,9.30
2022-11-25T15:53:57.713Z,9.30
2022-11-25T15:56:28.198Z,9.30
2022-11-25T15:59:00.248Z,9.30
2022-11-25T16:01:31.814Z,9.30
2022-11-25T16:04:20.026Z,9.30
2022-11-25T16:06:55.834Z,9.20
2022-11-25T16:09:28.453Z,9.20
2022-11-25T16:12:06.229Z,9.20
2022-11-25T16:14:36.779Z,9.20
2022-11-25T16:17:10.803Z,9.20
2022-11-25T16:19:42.028Z,9.20
2022-11-25T16:22:13.761Z,9.20
2022-11-25T16:24:48.354Z,9.10
2022-11-25T16:27:19.621Z,9.10
2022-11-25T16:29:52.850Z,9.10
2022-11-25T16:32:24.006Z,9.10
2022-11-25T16:34:52.040Z,9.10
2022-11-25T16:37:19.989Z,9.10
2022-11-25T16:39:47.738Z,9.10
2022-11-25T16:42:20.916Z,9.10
2022-11-25T16:44:50.856Z,9.10
2022-11-25T16:47:21.807Z,9.10
2022-11-25T16:49:49.990Z,9.00
2022-11-25T16:52:17.743Z,9.00
2022-11-25T16:54:46.082Z,9.00
2022-11-25T16:57:18.655Z,9.00
2022-11-25T16:59:51.103Z,9.00
2022-11-25T17:02:23.817Z,9.00
2022-11-25T17:04:51.786Z,9.00
2022-11-25T17:07:35.824Z,9.00
2022-11-25T17:10:04.821Z,9.00
2022-11-25T17:12:34.471Z,9.00
2022-11-25T17:15:04.530Z,9.00
2022-11-25T17:17:34.179Z,9.00
2022-11-25T17:20:01.957Z,9.00
2022-11-25T17:22:34.684Z,9.00
2022-11-25T17:25:06.120Z,8.90
2022-11-25T17:27:34.304Z,8.90
2022-11-25T17:30:06.317Z,8.90
2022-11-25T17:32:36.612Z,8.90
2022-11-25T17:35:04.806Z,8.90
2022-11-25T17:37:32.875Z,8.90
2022-11-25T17:40:00.668Z,8.90
2022-11-25T17:42:31.159Z,8.90
2022-11-25T17:44:59.248Z,8.80
2022-11-25T17:47:27.298Z,8.80
2022-11-25T17:49:57.722Z,8.80
2022-11-25T17:52:25.513Z,8.80
2022-11-25T17:54:53.374Z,8.80
2022-11-25T17:57:23.213Z,8.80
2022-11-25T17:59:51.008Z,8.80
2022-11-25T18:02:20.640Z,8.80
2022-11-25T18:04:49.073Z,8.80
2022-11-25T18:07:18.688Z,8.80
2022-11-25T18:09:46.636Z,8.80
2022-11-25T18:12:19.204Z,8.80
2022-11-25T18:14:47.050Z,8.80
2022-11-25T18:17:18.996Z,8.80
2022-11-25T18:19:52.897Z,8.80
2022-11-25T18:22:24.709Z,8.80
2022-11-25T18:24:53.640Z,8.80
2022-11-25T18:27:24.481Z,8.80
2022-11-25T18:29:53.280Z,8.80
2022-11-25T18:32:22.508Z,8.80
2022-11-25T18:34:50.662Z,8.80
2022-11-25T18:37:18.500Z,8.80
2022-11-25T18:39:47.646Z,8.80
2022-11-25T18:42:23.981Z,8.80
2022-11-25T18:44:51.894Z,8.80
2022-11-25T18:47:19.599Z,8.80
2022-11-25T18:49:52.355Z,8.80
2022-11-25T18:52:23.229Z,8.80
2022-11-25T18:54:52.340Z,8.80
2022-11-25T18:57:20.326Z,8.80
2022-11-25T19:00:10.217Z,8.80
2022-11-25T19:02:36.485Z,8.80
2022-11-25T19:05:15.159Z,8.80
2022-11-25T19:07:43.016Z,8.80
2022-11-25T19:10:13.915Z,8.80
2022-11-25T19:12:44.116Z,8.80
2022-11-25T19:15:15.237Z,8.80
2022-11-25T19:17:45.281Z,8.70
2022-11-25T19:20:16.828Z,8.70
2022-11-25T19:22:44.786Z,8.70
2022-11-25T19:25:14.221Z,8.70
2022-11-25T19:27:44.327Z,8.70
2022-11-25T19:30:16.657Z,8.70
2022-11-25T19:32:46.118Z,8.70
2022-11-25T19:35:16.910Z,8.70
2022-11-25T19:37:44.888Z,8.70
2022-11-25T19:40:19.746Z,8.70
2022-11-25T19:42:48.353Z,8.70
2022-11-25T19:45:18.897Z,8.70
2022-11-25T19:47:50.363Z,8.70
2022-11-25T19:50:22.477Z,8.70
2022-11-25T19:52:50.727Z,8.70
2022-11-25T19:55:22.495Z,8.70
2022-11-25T19:57:51.154Z,8.70
2022-11-25T20:00:20.770Z,8.70
2022-11-25T20:02:51.629Z,8.70
2022-11-25T20:05:22.430Z,8.70
2022-11-25T20:07:50.294Z,8.70
2022-11-25T20:10:21.603Z,8.80
2022-11-25T20:12:50.078Z,8.70
2022-11-25T20:15:18.181Z,8.80
2022-11-25T20:17:48.571Z,8.70
2022-11-25T20:20:19.294Z,8.70
2022-11-25T20:22:55.881Z,8.70
2022-11-25T20:25:25.128Z,8.70
2022-11-25T20:27:53.307Z,8.70
2022-11-25T20:30:23.662Z,8.70
2022-11-25T20:32:52.243Z,8.70
2022-11-25T20:35:20.847Z,8.70
2022-11-25T20:38:00.240Z,8.70
2022-11-25T20:40:38.914Z,8.70
2022-11-25T20:43:07.281Z,8.70
2022-11-25T20:45:35.133Z,8.70
2022-11-25T20:48:02.952Z,8.70
2022-11-25T20:50:31.397Z,8.70
2022-11-25T20:52:59.163Z,8.70
2022-11-25T20:55:27.277Z,8.70
2022-11-25T20:57:56.472Z,8.70
2022-11-25T21:00:26.189Z,8.70
2022-11-25T21:02:55.270Z,8.70
2022-11-25T21:05:23.594Z,8.70
2022-11-25T21:07:51.993Z,8.70
2022-11-25T21:10:25.510Z,8.70
2022-11-25T21:12:53.686Z,8.70
2022-11-25T21:15:25.074Z,8.60
2022-11-25T21:17:52.882Z,8.70
2022-11-25T21:20:21.144Z,8.60
2022-11-25T21:22:55.054Z,8.60
2022-11-25T21:25:24.728Z,8.60
2022-11-25T21:27:53.079Z,8.60
2022-11-25T21:30:24.379Z,8.70
2022-11-25T21:32:54.481Z,8.60
2022-11-25T21:35:23.328Z,8.60
2022-11-25T21:37:51.197Z,8.60
2022-11-25T21:40:31.128Z,8.60
2022-11-25T21:42:59.265Z,8.60
2022-11-25T21:45:28.426Z,8.60
2022-11-25T21:47:56.294Z,8.50
2022-11-25T21:50:29.090Z,8.50
2022-11-25T21:52:57.382Z,8.50
2022-11-25T21:55:25.460Z,8.50
2022-11-25T21:57:53.208Z,8.50
2022-11-25T22:00:24.965Z,8.50
2022-11-25T22:02:54.172Z,8.50
2022-11-25T22:05:25.403Z,8.50
2022-11-25T22:07:54.979Z,8.50
2022-11-25T22:10:23.657Z,8.50
2022-11-25T22:12:51.669Z,8.40
2022-11-25T22:15:21.778Z,8.50
2022-11-25T22:17:50.643Z,8.40
2022-11-25T22:20:27.077Z,8.40
2022-11-25T22:22:55.529Z,8.40
2022-11-25T22:25:25.552Z,8.40
2022-11-25T22:27:53.780Z,8.40
2022-11-25T22:30:23.133Z,8.40
2022-11-25T22:32:59.267Z,8.40
2022-11-25T22:35:29.232Z,8.40
2022-11-25T22:37:56.964Z,8.40
2022-11-25T22:40:25.279Z,8.40
2022-11-25T22:42:55.865Z,8.40
2022-11-25T22:45:30.550Z,8.40
2022-11-25T22:47:59.371Z,8.40
2022-11-25T22:50:30.636Z,8.40
2022-11-25T22:52:59.210Z,8.40
2022-11-25T22:55:29.027Z,8.40
2022-11-25T22:57:58.774Z,8.40
2022-11-25T23:00:28.718Z,8.40
2022-11-25T23:02:59.108Z,8.40
2022-11-25T23:05:33.065Z,8.40
2022-11-25T23:08:01.643Z,8.40
2022-11-25T23:10:32.424Z,8.40
2022-11-25T23:13:00.167Z,8.40
2022-11-25T23:15:27.930Z,8.40
2022-11-25T23:17:57.523Z,8.40
2022-11-25T23:20:29.678Z,8.40
2022-11-25T23:22:57.681Z,8.40
2022-11-25T23:25:25.528Z,8.40
2022-11-25T23:27:53.356Z,8.40
2022-11-25T23:30:24.036Z,8.40
2022-11-25T23:32:53.944Z,8.40
2022-11-25T23:35:27.754Z,8.40
2022-11-25T23:37:58.663Z,8.40
2022-11-25T23:40:27.522Z,8.40
2022-11-25T23:42:56.308Z,8.40
2022-11-25T23:45:26.714Z,8.40
2022-11-25T23:47:56.178Z,8.40
2022-11-25T23:50:27.756Z,8.40
2022-11-25T23:53:00.626Z,8.40
2022-11-25T23:55:32.572Z,8.40
2022-11-25T23:58:02.551Z,8.40
